createdAt,value
2023-04-02T00:00:28.625Z,100.00
2023-04-02T00:03:35.288Z,100.00
2023-04-02T00:06:49.688Z,100.00
2023-04-02T00:09:54.704Z,100.00
2023-04-02T00:13:22.165Z,100.00
2023-04-02T00:16:30.386Z,100.00
2023-04-02T00:19:40.423Z,100.00
2023-04-02T00:22:46.248Z,100.00
2023-04-02T00:25:54.239Z,100.00
2023-04-02T00:28:59.628Z,100.00
2023-04-02T00:32:08.580Z,100.00
2023-04-02T00:35:14.160Z,100.00
2023-04-02T00:38:20.145Z,100.00
2023-04-02T00:41:36.457Z,100.00
2023-04-02T00:44:41.417Z,100.00
2023-04-02T00:47:51.619Z,100.00
2023-04-02T00:50:57.022Z,100.00
2023-04-02T00:54:02.692Z,100.00
2023-04-02T00:57:09.992Z,100.00
2023-04-02T01:00:43.144Z,100.00
2023-04-02T01:03:51.071Z,100.00
2023-04-02T01:06:58.225Z,100.00
2023-04-02T01:10:30.395Z,100.00
2023-04-02T01:14:07.044Z,100.00
2023-04-02T01:17:56.513Z,100.00
2023-04-02T01:21:38.587Z,100.00
2023-04-02T01:24:46.585Z,100.00
2023-04-02T01:27:59.820Z,100.00
2023-04-02T01:31:08.915Z,100.00
2023-04-02T01:34:13.900Z,100.00
2023-04-02T01:37:56.410Z,100.00
2023-04-02T01:41:08.067Z,100.00
2023-04-02T01:44:30.168Z,100.00
2023-04-02T01:47:37.906Z,100.00
2023-04-02T01:50:45.891Z,100.00
2023-04-02T01:53:33.776Z,100.00
2023-04-02T01:56:26.469Z,100.00
2023-04-02T01:59:22.637Z,100.00
2023-04-02T02:02:30.265Z,100.00
2023-04-02T02:05:37.775Z,100.00
2023-04-02T02:09:02.396Z,100.00
2023-04-02T02:12:09.755Z,100.00
2023-04-02T02:15:16.152Z,100.00
2023-04-02T02:18:22.587Z,100.00
2023-04-02T02:21:29.153Z,100.00
2023-04-02T02:24:40.291Z,100.00
2023-04-02T02:27:50.597Z,100.00
2023-04-02T02:31:07.772Z,100.00
2023-04-02T02:34:23.507Z,100.00
2023-04-02T02:37:42.222Z,100.00
2023-04-02T02:40:55.738Z,99.65
2023-04-02T02:43:59.962Z,99.96
2023-04-02T02:47:04.823Z,99.75
2023-04-02T02:50:11.301Z,99.51
2023-04-02T02:53:20.797Z,99.13
2023-04-02T02:56:28.672Z,98.78
2023-04-02T02:59:34.259Z,98.20
2023-04-02T03:02:41.521Z,97.12
2023-04-02T03:05:47.809Z,96.58
2023-04-02T03:09:19.045Z,96.58
2023-04-02T03:13:06.928Z,96.19
2023-04-02T03:16:34.816Z,95.77
2023-04-02T03:19:38.379Z,95.03
2023-04-02T03:22:29.963Z,94.64
2023-04-02T03:25:44.806Z,94.79
2023-04-02T03:28:44.494Z,94.57
2023-04-02T03:32:16.179Z,93.86
2023-04-02T03:35:35.125Z,94.06
2023-04-02T03:39:03.114Z,93.12
2023-04-02T03:42:32.415Z,93.18
2023-04-02T03:45:41.560Z,91.71
2023-04-02T03:49:01.385Z,89.91
2023-04-02T03:52:21.621Z,88.95
2023-04-02T03:55:37.089Z,88.16
2023-04-02T03:59:02.522Z,89.09
2023-04-02T04:02:41.736Z,88.64
2023-04-02T04:05:55.188Z,88.28
2023-04-02T04:09:09.027Z,87.39
2023-04-02T04:12:38.103Z,86.64
2023-04-02T04:16:03.144Z,85.15
2023-04-02T04:19:19.771Z,84.08
2023-04-02T04:22:40.472Z,83.47
2023-04-02T04:25:48.495Z,82.88
2023-04-02T04:29:35.032Z,84.15
2023-04-02T04:32:45.331Z,85.04
2023-04-02T04:36:03.168Z,85.07
2023-04-02T04:39:08.027Z,85.46
2023-04-02T04:42:15.974Z,85.49
2023-04-02T04:45:45.140Z,84.22
2023-04-02T04:49:20.528Z,82.83
2023-04-02T04:52:37.707Z,80.92
2023-04-02T04:55:53.732Z,80.25
2023-04-02T04:59:25.763Z,78.92
2023-04-02T05:02:24.231Z,79.06
2023-04-02T05:05:34.506Z,78.17
2023-04-02T05:08:44.106Z,77.98
2023-04-02T05:11:56.341Z,77.41
2023-04-02T05:15:22.394Z,76.84
2023-04-02T05:18:55.780Z,76.31
2023-04-02T05:22:14.431Z,76.75
2023-04-02T05:25:35.465Z,77.00
2023-04-02T05:28:59.505Z,76.24
2023-04-02T05:32:31.437Z,75.05
2023-04-02T05:35:40.287Z,75.19
2023-04-02T05:38:48.673Z,75.95
2023-04-02T05:41:58.817Z,74.30
2023-04-02T05:45:43.571Z,73.74
2023-04-02T05:48:55.083Z,72.73
2023-04-02T05:51:58.367Z,71.68
2023-04-02T05:55:34.349Z,71.33
2023-04-02T05:59:02.886Z,69.71
2023-04-02T06:02:18.097Z,69.84
2023-04-02T06:05:30.216Z,68.74
2023-04-02T06:08:42.649Z,68.10
2023-04-02T06:11:54.063Z,65.97
2023-04-02T06:15:01.460Z,64.00
2023-04-02T06:18:09.974Z,64.39
2023-04-02T06:21:16.992Z,62.96
2023-04-02T06:24:25.380Z,63.12
2023-04-02T06:27:31.768Z,62.57
2023-04-02T06:30:43.757Z,63.83
2023-04-02T06:33:51.859Z,65.69
2023-04-02T06:36:59.643Z,66.18
2023-04-02T06:40:07.360Z,66.98
2023-04-02T06:43:14.231Z,65.74
2023-04-02T06:46:35.539Z,64.91
2023-04-02T06:49:55.062Z,65.10
2023-04-02T06:53:06.381Z,64.64
2023-04-02T06:56:38.387Z,65.77
2023-04-02T06:59:46.581Z,64.56
2023-04-02T07:02:55.240Z,64.47
2023-04-02T07:06:01.095Z,64.42
2023-04-02T07:09:07.749Z,63.84
2023-04-02T07:12:16.582Z,62.13
2023-04-02T07:15:26.738Z,59.63
2023-04-02T07:18:46.801Z,61.73
2023-04-02T07:21:53.263Z,62.08
2023-04-02T07:25:00.208Z,60.68
2023-04-02T07:28:08.641Z,59.24
2023-04-02T07:31:14.465Z,57.61
2023-04-02T07:34:20.719Z,58.77
2023-04-02T07:37:28.056Z,58.70
2023-04-02T07:40:35.310Z,56.13
2023-04-02T07:43:42.623Z,55.00
2023-04-02T07:46:41.161Z,54.02
2023-04-02T07:49:47.319Z,51.53
2023-04-02T07:52:59.192Z,50.00
2023-04-02T07:56:08.469Z,48.94
2023-04-02T07:59:13.552Z,46.66
2023-04-02T08:02:19.353Z,45.99
2023-04-02T08:05:25.751Z,45.05
2023-04-02T08:08:32.098Z,45.47
2023-04-02T08:11:37.759Z,44.20
2023-04-02T08:14:45.729Z,42.65
2023-04-02T08:17:51.651Z,41.64
2023-04-02T08:20:57.847Z,40.48
2023-04-02T08:24:03.827Z,40.60
2023-04-02T08:27:11.698Z,38.36
2023-04-02T08:30:17.869Z,38.73
2023-04-02T08:33:25.039Z,39.47
2023-04-02T08:36:33.080Z,39.67
2023-04-02T08:39:41.564Z,39.82
2023-04-02T08:43:18.229Z,40.74
2023-04-02T08:46:35.810Z,41.35
2023-04-02T08:49:59.078Z,42.63
2023-04-02T08:53:04.940Z,43.11
2023-04-02T08:56:36.268Z,44.17
2023-04-02T08:59:48.487Z,44.90
2023-04-02T09:03:01.171Z,46.22
2023-04-02T09:06:07.472Z,46.75
2023-04-02T09:09:13.724Z,47.04
2023-04-02T09:12:19.348Z,47.86
2023-04-02T09:15:38.553Z,47.57
2023-04-02T09:18:45.413Z,48.98
2023-04-02T09:21:58.080Z,50.33
2023-04-02T09:25:11.786Z,50.77
2023-04-02T09:28:18.449Z,50.79
2023-04-02T09:31:52.251Z,50.73
2023-04-02T09:34:58.930Z,51.54
2023-04-02T09:38:31.632Z,52.21
2023-04-02T09:41:38.407Z,51.39
2023-04-02T09:44:44.175Z,51.24
2023-04-02T09:47:50.507Z,51.19
2023-04-02T09:50:57.509Z,50.74
2023-04-02T09:54:04.056Z,50.44
2023-04-02T09:57:17.883Z,49.32
2023-04-02T10:00:37.862Z,50.64
2023-04-02T10:03:48.294Z,50.51
2023-04-02T10:06:55.825Z,50.59
2023-04-02T10:10:01.306Z,49.82
2023-04-02T10:13:28.323Z,50.77
2023-04-02T10:16:45.961Z,50.15
2023-04-02T10:19:57.317Z,48.42
2023-04-02T10:23:04.934Z,48.24
2023-04-02T10:26:29.176Z,48.87
2023-04-02T10:29:42.593Z,49.72
2023-04-02T10:33:14.783Z,49.79
2023-04-02T10:36:24.414Z,49.56
2023-04-02T10:39:45.191Z,49.83
2023-04-02T10:42:58.260Z,49.96
2023-04-02T10:46:13.040Z,49.63
2023-04-02T10:49:40.777Z,49.57
2023-04-02T10:52:42.835Z,47.89
2023-04-02T10:55:33.299Z,46.72
2023-04-02T10:58:36.210Z,47.78
2023-04-02T11:01:39.928Z,44.11
2023-04-02T11:05:01.265Z,44.82
2023-04-02T11:08:14.569Z,44.08
2023-04-02T11:11:32.842Z,43.81
2023-04-02T11:14:44.007Z,42.24
2023-04-02T11:17:50.594Z,43.15
2023-04-02T11:21:17.210Z,43.15
2023-04-02T11:24:40.310Z,44.11
2023-04-02T11:27:47.269Z,44.67
2023-04-02T11:30:53.343Z,40.85
2023-04-02T11:33:59.143Z,40.81
2023-04-02T11:37:13.422Z,40.23
2023-04-02T11:40:22.861Z,41.73
2023-04-02T11:43:51.868Z,41.53
2023-04-02T11:46:57.912Z,42.52
2023-04-02T11:50:13.911Z,42.58
2023-04-02T11:53:28.173Z,42.78
2023-04-02T11:56:53.344Z,43.71
2023-04-02T12:00:06.228Z,44.21
2023-04-02T12:03:39.724Z,43.16
2023-04-02T12:07:04.072Z,43.38
2023-04-02T12:10:14.376Z,44.17
2023-04-02T12:13:24.000Z,44.07
2023-04-02T12:16:28.910Z,44.93
2023-04-02T12:19:37.727Z,44.30
2023-04-02T12:22:48.715Z,43.94
2023-04-02T12:25:56.169Z,43.83
2023-04-02T12:29:02.582Z,45.49
2023-04-02T12:32:11.290Z,45.94
2023-04-02T12:35:16.175Z,47.56
2023-04-02T12:38:40.678Z,48.58
2023-04-02T12:41:47.478Z,53.28
2023-04-02T12:44:53.503Z,55.36
2023-04-02T12:48:02.577Z,57.70
2023-04-02T12:51:07.692Z,57.05
2023-04-02T12:54:13.423Z,58.23
2023-04-02T12:57:42.761Z,58.57
2023-04-02T13:00:50.559Z,57.71
2023-04-02T13:03:57.241Z,57.57
2023-04-02T13:07:07.744Z,58.00
2023-04-02T13:10:19.118Z,57.10
2023-04-02T13:13:32.091Z,58.05
2023-04-02T13:16:51.275Z,55.46
2023-04-02T13:19:57.072Z,55.66
2023-04-02T13:23:03.792Z,57.05
2023-04-02T13:26:11.896Z,58.07
2023-04-02T13:29:39.349Z,58.35
2023-04-02T13:32:46.158Z,57.58
2023-04-02T13:35:53.593Z,58.67
2023-04-02T13:39:00.122Z,60.36
2023-04-02T13:42:14.917Z,62.20
2023-04-02T13:45:20.960Z,63.91
2023-04-02T13:48:32.093Z,66.65
2023-04-02T13:51:54.635Z,67.42
2023-04-02T13:55:08.046Z,67.17
2023-04-02T13:58:13.872Z,67.51
2023-04-02T14:01:20.806Z,66.19
2023-04-02T14:04:28.534Z,66.32
2023-04-02T14:08:02.456Z,66.50
2023-04-02T14:11:35.282Z,66.97
2023-04-02T14:15:07.440Z,67.57
2023-04-02T14:18:39.567Z,69.59
2023-04-02T14:21:51.958Z,71.08
2023-04-02T14:25:21.503Z,72.33
2023-04-02T14:28:49.724Z,76.09
2023-04-02T14:32:14.352Z,79.00
2023-04-02T14:35:39.563Z,78.52
2023-04-02T14:39:01.666Z,81.47
2023-04-02T14:42:13.084Z,83.47
2023-04-02T14:45:41.534Z,84.08
2023-04-02T14:49:26.109Z,84.47
2023-04-02T14:52:34.806Z,85.42
2023-04-02T14:55:53.342Z,86.81
2023-04-02T14:59:03.608Z,87.74
2023-04-02T15:02:39.591Z,88.24
2023-04-02T15:06:09.305Z,88.97
2023-04-02T15:09:21.874Z,89.20
2023-04-02T15:12:37.121Z,89.18
2023-04-02T15:16:11.867Z,89.61
2023-04-02T15:19:18.538Z,89.99
2023-04-02T15:22:54.018Z,89.87
2023-04-02T15:26:05.120Z,90.09
2023-04-02T15:29:34.872Z,90.44
2023-04-02T15:32:55.703Z,90.85
2023-04-02T15:36:05.009Z,90.87
2023-04-02T15:39:14.703Z,90.73
2023-04-02T15:42:31.890Z,90.92
2023-04-02T15:46:17.129Z,90.94
2023-04-02T15:49:43.519Z,90.23
2023-04-02T15:53:02.062Z,90.91
2023-04-02T15:56:32.248Z,91.08
2023-04-02T16:00:18.401Z,91.28
2023-04-02T16:03:49.796Z,91.25
2023-04-02T16:07:10.318Z,91.17
2023-04-02T16:10:41.263Z,91.40
2023-04-02T16:13:51.490Z,91.27
2023-04-02T16:16:57.377Z,90.89
2023-04-02T16:20:07.499Z,91.28
2023-04-02T16:23:21.273Z,91.62
2023-04-02T16:26:55.530Z,92.39
2023-04-02T16:30:26.417Z,93.15
2023-04-02T16:33:46.935Z,93.48
2023-04-02T16:37:28.593Z,94.33
2023-04-02T16:41:07.529Z,94.59
2023-04-02T16:44:31.839Z,95.76
2023-04-02T16:48:23.679Z,96.99
2023-04-02T16:51:56.172Z,98.03
2023-04-02T16:55:11.197Z,99.13
2023-04-02T16:58:46.048Z,99.92
2023-04-02T17:02:33.476Z,99.95
2023-04-02T17:05:49.946Z,100.00
2023-04-02T17:09:38.996Z,100.00
2023-04-02T17:13:08.493Z,100.00
2023-04-02T17:16:22.464Z,100.00
2023-04-02T17:19:30.464Z,100.00
2023-04-02T17:22:35.884Z,100.00
2023-04-02T17:25:51.315Z,99.78
2023-04-02T17:28:57.182Z,99.48
2023-04-02T17:32:03.362Z,99.23
2023-04-02T17:35:10.837Z,98.84
2023-04-02T17:38:30.286Z,98.53
2023-04-02T17:41:40.483Z,98.33
2023-04-02T17:45:09.087Z,98.12
2023-04-02T17:48:24.647Z,98.07
2023-04-02T17:51:50.618Z,98.28
2023-04-02T17:55:11.781Z,98.11
2023-04-02T17:58:53.309Z,97.88
2023-04-02T18:02:35.850Z,97.84
2023-04-02T18:05:49.605Z,97.39
2023-04-02T18:09:54.004Z,96.90
2023-04-02T18:13:11.751Z,96.62
2023-04-02T18:16:38.753Z,96.22
2023-04-02T18:19:50.498Z,95.82
2023-04-02T18:23:04.159Z,95.64
2023-04-02T18:26:45.924Z,94.97
2023-04-02T18:30:19.512Z,94.05
2023-04-02T18:33:39.656Z,93.71
2023-04-02T18:37:22.117Z,93.31
2023-04-02T18:40:33.520Z,92.68
2023-04-02T18:43:49.722Z,91.64
2023-04-02T18:47:07.085Z,91.33
2023-04-02T18:50:26.669Z,91.53
2023-04-02T18:53:33.439Z,91.63
2023-04-02T18:56:39.157Z,91.82
2023-04-02T19:00:14.925Z,92.72
2023-04-02T19:03:28.001Z,93.25
2023-04-02T19:06:41.251Z,93.80
2023-04-02T19:09:56.026Z,94.11
2023-04-02T19:13:02.564Z,94.97
2023-04-02T19:16:13.296Z,95.51
2023-04-02T19:19:43.468Z,96.17
2023-04-02T19:23:19.784Z,95.98
2023-04-02T19:26:33.501Z,95.60
2023-04-02T19:29:43.913Z,96.04
2023-04-02T19:33:39.467Z,96.29
2023-04-02T19:37:07.671Z,96.03
2023-04-02T19:40:59.900Z,96.06
2023-04-02T19:44:05.868Z,96.03
2023-04-02T19:47:10.243Z,96.42
2023-04-02T19:50:16.248Z,96.55
2023-04-02T19:53:22.778Z,97.03
2023-04-02T19:56:29.234Z,97.84
2023-04-02T19:59:34.771Z,98.51
2023-04-02T20:02:40.746Z,99.26
2023-04-02T20:05:46.739Z,100.00
2023-04-02T20:08:53.292Z,100.00
2023-04-02T20:11:58.898Z,100.00
2023-04-02T20:15:04.590Z,100.00
2023-04-02T20:18:10.938Z,100.00
2023-04-02T20:21:21.898Z,100.00
2023-04-02T20:24:27.129Z,100.00
2023-04-02T20:27:33.024Z,100.00
2023-04-02T20:30:39.742Z,100.00
2023-04-02T20:33:38.691Z,100.00
2023-04-02T20:36:37.468Z,100.00
2023-04-02T20:39:44.244Z,100.00
2023-04-02T20:42:49.785Z,100.00
2023-04-02T20:45:56.608Z,100.00
2023-04-02T20:49:02.729Z,100.00
2023-04-02T20:52:09.358Z,100.00
2023-04-02T20:55:14.917Z,100.00
2023-04-02T20:58:20.431Z,100.00
2023-04-02T21:01:41.400Z,100.00
2023-04-02T21:04:47.798Z,100.00
2023-04-02T21:07:55.324Z,100.00
2023-04-02T21:11:01.921Z,100.00
2023-04-02T21:14:08.587Z,100.00
2023-04-02T21:17:14.210Z,100.00
2023-04-02T21:20:21.452Z,100.00
2023-04-02T21:23:27.365Z,100.00
2023-04-02T21:26:34.829Z,100.00
2023-04-02T21:29:40.701Z,100.00
2023-04-02T21:32:47.310Z,100.00
2023-04-02T21:35:52.965Z,100.00
2023-04-02T21:39:07.862Z,100.00
2023-04-02T21:42:14.707Z,100.00
2023-04-02T21:45:21.646Z,100.00
2023-04-02T21:48:27.951Z,100.00
2023-04-02T21:51:38.508Z,100.00
2023-04-02T21:54:38.552Z,100.00
2023-04-02T21:57:44.264Z,100.00
2023-04-02T22:00:49.107Z,100.00
2023-04-02T22:03:55.412Z,100.00
2023-04-02T22:07:01.768Z,100.00
2023-04-02T22:10:08.594Z,100.00
2023-04-02T22:13:15.271Z,100.00
2023-04-02T22:16:24.424Z,100.00
2023-04-02T22:19:24.334Z,100.00
2023-04-02T22:22:17.704Z,100.00
2023-04-02T22:25:24.606Z,100.00
2023-04-02T22:28:29.993Z,100.00
2023-04-02T22:31:37.753Z,100.00
2023-04-02T22:34:46.381Z,100.00
2023-04-02T22:37:51.634Z,100.00
2023-04-02T22:40:58.718Z,100.00
2023-04-02T22:44:04.504Z,100.00
2023-04-02T22:47:10.787Z,100.00
2023-04-02T22:50:16.489Z,100.00
2023-04-02T22:53:21.825Z,100.00
2023-04-02T22:56:31.631Z,100.00
2023-04-02T22:59:37.020Z,100.00
2023-04-02T23:02:37.156Z,100.00
2023-04-02T23:05:43.815Z,100.00
2023-04-02T23:08:50.054Z,100.00
2023-04-02T23:11:56.518Z,100.00
2023-04-02T23:15:05.289Z,100.00
2023-04-02T23:18:11.772Z,100.00
2023-04-02T23:21:17.397Z,100.00
2023-04-02T23:24:26.546Z,100.00
2023-04-02T23:27:31.583Z,100.00
2023-04-02T23:30:38.508Z,100.00
2023-04-02T23:33:39.015Z,100.00
2023-04-02T23:36:48.749Z,100.00
2023-04-02T23:39:55.648Z,100.00
2023-04-02T23:43:01.465Z,100.00
2023-04-02T23:46:08.303Z,100.00
2023-04-02T23:49:16.768Z,100.00
2023-04-02T23:52:22.435Z,100.00
2023-04-02T23:55:28.241Z,100.00
2023-04-02T23:58:34.897Z,100.00
